createdAt,value
2019-05-15T00:01:54.542Z,3.72
2019-05-15T00:04:24.529Z,3.90
2019-05-15T00:06:54.493Z,3.83
2019-05-15T00:09:24.566Z,3.90
2019-05-15T00:11:54.480Z,3.75
2019-05-15T00:14:24.543Z,3.68
2019-05-15T00:16:54.880Z,3.68
2019-05-15T00:19:24.875Z,3.90
2019-05-15T00:21:54.786Z,4.04
2019-05-15T00:24:25.178Z,3.83
2019-05-15T00:26:55.189Z,3.54
2019-05-15T00:29:25.261Z,3.47
2019-05-15T00:31:55.223Z,3.48
2019-05-15T00:34:25.292Z,3.62
2019-05-15T00:36:58.287Z,3.30
2019-05-15T00:39:28.369Z,3.16
2019-05-15T00:41:59.125Z,3.26
2019-05-15T00:44:29.204Z,3.38
2019-05-15T00:46:59.154Z,3.56
2019-05-15T00:49:29.928Z,3.36
2019-05-15T00:51:59.902Z,3.06
2019-05-15T00:54:29.849Z,3.24
2019-05-15T00:56:59.766Z,3.57
2019-05-15T00:59:30.329Z,3.17
2019-05-15T01:02:00.285Z,3.05
2019-05-15T01:04:30.259Z,3.01
2019-05-15T01:07:00.167Z,2.98
2019-05-15T01:09:30.624Z,2.73
2019-05-15T01:12:00.560Z,2.75
2019-05-15T01:14:30.585Z,3.03
2019-05-15T01:17:00.495Z,3.03
2019-05-15T01:19:31.118Z,2.88
2019-05-15T01:22:01.062Z,2.98
2019-05-15T01:24:31.101Z,3.04
2019-05-15T01:27:01.005Z,2.79
2019-05-15T01:29:41.816Z,2.72
2019-05-15T01:32:03.487Z,2.62
2019-05-15T01:34:33.929Z,2.48
2019-05-15T01:37:03.860Z,2.33
2019-05-15T01:39:33.898Z,2.45
2019-05-15T01:42:03.812Z,2.59
2019-05-15T01:44:34.353Z,2.77
2019-05-15T01:47:05.013Z,2.60
2019-05-15T01:49:35.031Z,2.65
2019-05-15T01:52:04.948Z,2.70
2019-05-15T01:54:38.169Z,2.46
2019-05-15T01:57:09.364Z,2.65
2019-05-15T02:22:48.473Z,2.11
2019-05-15T02:25:18.675Z,2.04
2019-05-15T02:27:48.699Z,1.72
2019-05-15T02:30:28.367Z,1.75
2019-05-15T02:32:51.143Z,2.17
2019-05-15T02:35:21.137Z,1.86
2019-05-15T02:37:51.073Z,1.71
2019-05-15T02:40:21.163Z,1.72
2019-05-15T02:42:51.145Z,1.52
2019-05-15T02:45:21.615Z,1.71
2019-05-15T02:59:21.023Z,1.43
2019-05-15T03:01:50.880Z,1.46
2019-05-15T03:11:10.071Z,1.54
2019-05-15T03:21:00.263Z,1.55
2019-05-15T03:23:30.470Z,1.46
2019-05-15T03:26:04.085Z,1.69
2019-05-15T03:32:33.996Z,1.66
2019-05-15T03:34:58.821Z,1.46
2019-05-15T03:37:32.655Z,1.66
2019-05-15T03:39:59.757Z,1.43
2019-05-15T03:46:30.900Z,1.52
2019-05-15T03:49:00.772Z,1.62
2019-05-15T03:58:13.940Z,1.55
2019-05-15T04:00:44.006Z,1.85
2019-05-15T04:03:14.045Z,2.06
2019-05-15T04:05:44.302Z,1.81
2019-05-15T04:22:19.736Z,2.13
2019-05-15T04:24:50.230Z,2.43
2019-05-15T04:27:21.595Z,2.37
2019-05-15T04:29:51.601Z,2.61
2019-05-15T04:36:09.716Z,3.27
2019-05-15T04:38:39.210Z,4.79
2019-05-15T04:41:10.169Z,5.79
2019-05-15T04:43:45.088Z,7.04
2019-05-15T04:46:11.952Z,8.25
2019-05-15T04:48:41.843Z,9.06
2019-05-15T04:51:12.035Z,9.41
2019-05-15T04:53:42.172Z,9.35
2019-05-15T04:56:12.435Z,10.33
2019-05-15T04:58:42.760Z,10.26
2019-05-15T05:01:12.736Z,11.12
2019-05-15T05:03:42.769Z,11.62
2019-05-15T05:06:12.825Z,11.66
2019-05-15T05:08:42.695Z,11.26
2019-05-15T05:11:13.520Z,11.84
2019-05-15T05:13:43.447Z,11.70
2019-05-15T05:16:13.353Z,10.95
2019-05-15T05:18:43.288Z,10.86
2019-05-15T05:21:13.196Z,10.96
2019-05-15T05:23:43.140Z,10.75
2019-05-15T05:26:13.396Z,11.01
2019-05-15T05:28:43.512Z,10.98
2019-05-15T05:31:14.215Z,10.68
2019-05-15T05:33:44.390Z,11.32
2019-05-15T05:36:14.462Z,11.70
2019-05-15T05:38:44.468Z,11.71
2019-05-15T05:41:14.434Z,12.08
2019-05-15T05:57:48.720Z,13.58
2019-05-15T06:00:24.185Z,13.11
2019-05-15T06:09:18.265Z,13.87
2019-05-15T06:11:48.845Z,13.43
2019-05-15T06:14:18.826Z,13.32
2019-05-15T06:16:48.728Z,14.69
2019-05-15T06:47:18.025Z,14.04
2019-05-15T07:14:33.064Z,15.96
2019-05-15T07:24:22.497Z,16.41
2019-05-15T07:34:11.466Z,15.54
2019-05-15T08:00:11.690Z,15.84
2019-05-15T08:12:39.155Z,18.49
2019-05-15T08:45:18.946Z,18.14
2019-05-15T08:47:49.602Z,18.41
2019-05-15T08:50:20.047Z,19.67
2019-05-15T08:52:50.083Z,19.13
2019-05-15T08:55:20.449Z,19.23
2019-05-15T08:57:55.494Z,20.14
2019-05-15T09:00:22.579Z,20.14
2019-05-15T09:02:52.582Z,20.18
2019-05-15T09:05:22.573Z,19.85
2019-05-15T09:07:53.505Z,20.68
2019-05-15T09:10:23.541Z,19.98
2019-05-15T09:12:54.386Z,19.45
2019-05-15T09:19:15.015Z,20.57
2019-05-15T09:21:44.905Z,21.62
2019-05-15T09:24:14.868Z,18.64
2019-05-15T09:26:44.767Z,17.82
2019-05-15T09:29:14.701Z,18.42
2019-05-15T09:31:44.597Z,17.64
2019-05-15T09:34:14.569Z,16.93
2019-05-15T09:36:45.275Z,15.48
2019-05-15T09:39:18.065Z,17.66
2019-05-15T09:45:38.451Z,21.18
2019-05-15T09:48:10.152Z,18.74
2019-05-15T09:50:40.011Z,20.51
2019-05-15T09:53:10.197Z,19.19
2019-05-15T09:55:40.359Z,20.72
2019-05-15T09:58:10.521Z,19.36
2019-05-15T10:00:40.484Z,16.74
2019-05-15T10:03:10.511Z,15.26
2019-05-15T10:05:40.389Z,16.49
2019-05-15T10:12:02.235Z,17.15
2019-05-15T10:14:32.319Z,15.07
2019-05-15T10:23:44.656Z,18.65
2019-05-15T10:26:14.781Z,22.48
2019-05-15T10:28:44.801Z,23.15
2019-05-15T10:31:15.027Z,21.06
2019-05-15T10:37:38.836Z,20.35
2019-05-15T11:02:39.382Z,15.74
2019-05-15T11:05:11.203Z,17.45
2019-05-15T11:07:41.382Z,16.25
2019-05-15T11:10:11.818Z,15.68
2019-05-15T11:16:32.918Z,15.52
2019-05-15T11:36:30.663Z,19.14
2019-05-15T11:39:01.037Z,23.59
2019-05-15T11:41:30.934Z,23.36
2019-05-15T11:44:01.161Z,24.54
2019-05-15T11:46:31.082Z,25.34
2019-05-15T11:49:01.175Z,25.01
2019-05-15T11:51:31.112Z,20.88
2019-05-15T11:54:01.268Z,19.67
2019-05-15T11:56:31.514Z,18.89
2019-05-15T11:59:01.704Z,17.54
2019-05-15T12:01:31.722Z,17.48
2019-05-15T12:04:01.649Z,17.45
2019-05-15T12:06:31.607Z,17.14
2019-05-15T12:12:52.216Z,20.08
2019-05-15T12:15:22.745Z,19.59
2019-05-15T12:17:52.624Z,18.73
2019-05-15T12:20:23.994Z,17.51
2019-05-15T12:22:53.927Z,17.60
2019-05-15T12:29:15.784Z,21.85
2019-05-15T12:31:45.713Z,25.81
2019-05-15T12:34:18.061Z,22.52
2019-05-15T12:36:56.727Z,20.52
2019-05-15T12:39:21.957Z,18.04
2019-05-15T13:01:53.151Z,20.35
2019-05-15T13:19:18.930Z,16.84
2019-05-15T13:29:02.477Z,17.31
2019-05-15T13:39:05.775Z,17.32
2019-05-15T14:03:42.748Z,16.91
2019-05-15T14:06:12.616Z,18.23
2019-05-15T14:15:05.760Z,15.72
2019-05-15T14:17:37.578Z,15.72
2019-05-15T14:20:09.296Z,16.14
2019-05-15T14:22:39.425Z,15.88
2019-05-15T14:25:10.143Z,15.24
2019-05-15T14:27:40.592Z,16.66
2019-05-15T14:30:11.228Z,19.93
2019-05-15T14:32:42.214Z,23.05
2019-05-15T14:35:12.307Z,20.65
2019-05-15T14:37:42.175Z,20.42
2019-05-15T14:40:12.886Z,19.06
2019-05-15T14:42:42.815Z,19.95
2019-05-15T14:52:04.771Z,17.40
2019-05-15T14:54:22.635Z,17.76
2019-05-15T14:56:52.658Z,16.93
2019-05-15T14:59:22.635Z,16.68
2019-05-15T15:13:18.174Z,18.16
2019-05-15T15:15:48.556Z,18.45
2019-05-15T15:18:18.619Z,17.85
2019-05-15T15:20:48.592Z,17.32
2019-05-15T15:23:18.673Z,16.60
2019-05-15T15:25:48.628Z,16.29
2019-05-15T15:28:18.993Z,16.49
2019-05-15T15:34:40.607Z,17.19
2019-05-15T15:37:10.537Z,17.14
2019-05-15T15:39:40.600Z,17.29
2019-05-15T15:42:10.803Z,16.00
2019-05-15T15:44:40.718Z,15.74
2019-05-15T15:47:10.752Z,15.16
2019-05-15T15:49:40.692Z,15.73
2019-05-15T15:55:55.458Z,16.34
2019-05-15T16:05:29.120Z,14.95
2019-05-15T16:15:12.232Z,14.19
2019-05-15T16:17:43.487Z,14.16
2019-05-15T16:20:15.126Z,14.14
2019-05-15T16:22:45.693Z,14.11
2019-05-15T16:25:18.130Z,14.16
2019-05-15T16:27:48.853Z,14.04
2019-05-15T16:30:19.174Z,14.09
2019-05-15T16:32:49.194Z,14.19
2019-05-15T16:39:11.855Z,14.21
2019-05-15T16:41:41.939Z,13.96
2019-05-15T16:44:12.064Z,14.13
2019-05-15T16:46:42.412Z,14.23
2019-05-15T16:49:12.308Z,13.61
2019-05-15T16:51:42.493Z,13.49
2019-05-15T16:54:13.245Z,13.43
2019-05-15T16:56:43.388Z,13.34
2019-05-15T17:02:48.075Z,12.87
2019-05-15T17:05:18.610Z,12.95
2019-05-15T17:07:49.352Z,12.96
2019-05-15T17:10:19.491Z,13.00
2019-05-15T17:12:49.419Z,13.45
2019-05-15T17:19:11.608Z,13.45
2019-05-15T17:21:41.521Z,13.19
2019-05-15T17:24:11.539Z,13.27
2019-05-15T17:26:41.705Z,13.03
2019-05-15T17:29:12.355Z,13.05
2019-05-15T17:31:42.530Z,12.73
2019-05-15T17:38:03.878Z,12.07
2019-05-15T17:40:33.806Z,12.21
2019-05-15T17:43:03.739Z,12.34
2019-05-15T17:45:33.999Z,12.41
2019-05-15T17:48:04.187Z,12.36
2019-05-15T17:50:47.867Z,12.24
2019-05-15T17:53:05.929Z,12.78
2019-05-15T17:55:55.120Z,12.54
2019-05-15T18:08:31.917Z,11.85
2019-05-15T18:18:22.319Z,11.60
2019-05-15T18:20:52.211Z,11.26
2019-05-15T18:23:23.683Z,11.05
2019-05-15T18:25:53.677Z,10.84
2019-05-15T18:28:23.706Z,10.56
2019-05-15T18:30:53.737Z,10.41
2019-05-15T18:33:24.055Z,10.19
2019-05-15T18:35:54.038Z,10.11
2019-05-15T18:38:23.977Z,9.90
2019-05-15T18:40:53.861Z,9.74
2019-05-15T18:43:24.012Z,9.71
2019-05-15T18:45:54.476Z,9.52
2019-05-15T18:48:24.412Z,9.56
2019-05-15T18:50:54.301Z,9.50
2019-05-15T18:53:24.388Z,9.46
2019-05-15T18:55:54.293Z,9.30
2019-05-15T18:58:24.196Z,9.17
2019-05-15T19:00:55.001Z,9.11
2019-05-15T19:03:24.892Z,9.00
2019-05-15T19:05:54.757Z,8.99
2019-05-15T19:08:24.665Z,8.96
2019-05-15T19:10:54.556Z,9.02
2019-05-15T19:13:24.818Z,8.91
2019-05-15T19:15:54.968Z,8.89
2019-05-15T19:18:27.767Z,8.86
2019-05-15T19:20:58.615Z,8.87
2019-05-15T19:23:28.696Z,8.93
2019-05-15T19:25:58.813Z,9.01
2019-05-15T19:28:28.883Z,8.88
2019-05-15T19:34:50.545Z,8.93
2019-05-15T19:37:20.453Z,8.89
2019-05-15T19:39:50.316Z,8.78
2019-05-15T19:42:20.482Z,8.78
2019-05-15T19:51:45.438Z,8.98
2019-05-15T19:54:18.231Z,8.82
2019-05-15T19:56:48.198Z,8.85
2019-05-15T19:59:22.533Z,8.78
2019-05-15T20:01:50.045Z,8.71
2019-05-15T20:04:20.207Z,8.73
2019-05-15T20:06:50.038Z,8.76
2019-05-15T20:13:10.908Z,8.71
2019-05-15T20:15:41.508Z,8.78
2019-05-15T20:18:11.640Z,8.78
2019-05-15T20:20:41.501Z,8.69
2019-05-15T20:23:11.407Z,8.66
2019-05-15T20:25:41.276Z,8.62
2019-05-15T20:28:12.061Z,8.58
2019-05-15T20:30:42.275Z,8.43
2019-05-15T20:33:12.376Z,8.25
2019-05-15T20:35:42.392Z,8.24
2019-05-15T20:38:12.380Z,8.26
2019-05-15T20:40:42.506Z,8.07
2019-05-15T20:43:13.150Z,8.08
2019-05-15T20:45:43.081Z,7.95
2019-05-15T20:48:13.240Z,7.86
2019-05-15T20:50:43.150Z,7.62
2019-05-15T20:53:13.753Z,7.54
2019-05-15T20:55:43.883Z,7.50
2019-05-15T20:58:13.858Z,7.28
2019-05-15T21:00:44.214Z,7.39
2019-05-15T21:03:14.113Z,7.35
2019-05-15T21:05:44.425Z,7.25
2019-05-15T21:08:14.643Z,7.02
2019-05-15T21:14:29.198Z,6.90
2019-05-15T22:12:28.560Z,5.62
2019-05-15T22:14:58.572Z,5.43
2019-05-15T22:24:10.616Z,5.04
2019-05-15T22:26:40.962Z,5.15
2019-05-15T22:33:14.789Z,4.98
2019-05-15T22:43:04.691Z,5.41
2019-05-15T23:07:50.343Z,5.52
2019-05-15T23:10:20.327Z,5.19
2019-05-15T23:12:50.268Z,4.99
2019-05-15T23:15:20.329Z,5.15
2019-05-15T23:17:50.638Z,5.22
2019-05-15T23:20:20.733Z,5.20
2019-05-15T23:22:50.649Z,5.05
2019-05-15T23:25:20.656Z,5.07
2019-05-15T23:27:50.662Z,5.00
2019-05-15T23:33:48.191Z,5.43
2019-05-15T23:43:31.296Z,5.34
2019-05-15T23:46:01.178Z,5.36
2019-05-15T23:48:31.079Z,5.38
2019-05-15T23:54:45.611Z,5.73
